Time;durP1;ratioP1;P1;durP2;ratioP2;P2;SDS_P1;SDS_P2;PMS_P1;PMS_P2;Temp;Humidity;BMP_temperature;BMP_pressure;BME280_temperature;BME280_humidity;BME280_pressure;Samples;Min_cycle;Max_cycle;Signal;HPM_P1;HPM_P2
2023/06/20 00:01:02;;;;;;;9.90;5.10;;;24.80;71.80;;;;;;5014062;28;20078;-94
2023/06/20 00:03:29;;;;;;;7.22;5.13;;;24.70;71.80;;;;;;5013518;28;20522;-94
2023/06/20 00:05:54;;;;;;;8.70;5.20;;;24.70;72.10;;;;;;4997565;28;20089;-94
2023/06/20 00:08:20;;;;;;;8.27;4.90;;;24.70;72.20;;;;;;4996742;28;20483;-95
2023/06/20 00:10:46;;;;;;;7.78;5.10;;;24.60;72.30;;;;;;5014916;28;20096;-94
2023/06/20 00:13:12;;;;;;;6.90;4.78;;;24.60;72.60;;;;;;4997297;28;20377;-93
2023/06/20 00:15:41;;;;;;;7.80;4.85;;;24.60;72.70;;;;;;4980692;28;20038;-94
2023/06/20 00:18:07;;;;;;;8.18;4.88;;;24.60;72.40;;;;;;4997438;28;20022;-94
2023/06/20 00:20:32;;;;;;;7.25;5.25;;;24.60;72.60;;;;;;4997126;28;20480;-93
2023/06/20 00:22:58;;;;;;;6.50;4.55;;;24.50;73.10;;;;;;4981204;28;20025;-94
2023/06/20 00:25:24;;;;;;;7.53;4.90;;;24.50;72.30;;;;;;5013801;28;20037;-93
2023/06/20 00:27:50;;;;;;;8.10;5.10;;;24.50;72.40;;;;;;4981140;28;20117;-93
2023/06/20 00:30:15;;;;;;;8.00;4.97;;;24.50;72.20;;;;;;4996861;28;20037;-94
2023/06/20 00:32:41;;;;;;;5.40;4.30;;;24.50;72.30;;;;;;4982354;28;20056;-93
2023/06/20 00:35:07;;;;;;;7.82;5.40;;;24.40;72.20;;;;;;5007571;28;20034;-93
2023/06/20 00:37:36;;;;;;;8.32;5.40;;;24.40;72.20;;;;;;5003677;28;20033;-92
2023/06/20 00:40:05;;;;;;;8.25;5.18;;;24.40;71.90;;;;;;5000299;28;20037;-93
2023/06/20 00:42:30;;;;;;;8.55;5.25;;;24.40;71.90;;;;;;5001057;28;20014;-93
2023/06/20 00:44:59;;;;;;;9.02;5.22;;;24.30;71.90;;;;;;4984710;28;20353;-94
2023/06/20 00:47:25;;;;;;;8.07;5.65;;;24.30;71.90;;;;;;5001036;28;20108;-93
2023/06/20 00:49:51;;;;;;;8.32;5.35;;;24.30;71.80;;;;;;5000734;28;20135;-94
2023/06/20 00:52:22;;;;;;;7.20;5.05;;;24.30;71.80;;;;;;4984836;28;20034;-94
2023/06/20 00:54:48;;;;;;;8.60;5.07;;;24.30;71.80;;;;;;5000745;28;20026;-92
2023/06/20 00:57:17;;;;;;;6.68;5.07;;;24.20;72.00;;;;;;4984588;28;20026;-93
2023/06/20 00:59:44;;;;;;;5.97;4.75;;;24.20;72.30;;;;;;4984408;28;20041;-93
2023/06/20 01:02:10;;;;;;;7.28;5.50;;;24.20;72.30;;;;;;5000685;28;20018;-93
2023/06/20 01:04:39;;;;;;;10.93;5.53;;;24.20;72.10;;;;;;4984441;28;20110;-93
2023/06/20 01:07:24;;;;;;;9.45;5.47;;;24.20;72.10;;;;;;4984193;28;20124;-93
2023/06/20 01:10:17;;;;;;;7.28;5.28;;;24.10;72.30;;;;;;5000036;28;20073;-93
2023/06/20 01:12:47;;;;;;;9.10;5.68;;;24.10;72.60;;;;;;5000083;28;20030;-93
2023/06/20 01:15:33;;;;;;;8.30;4.87;;;24.10;72.70;;;;;;5017898;28;20030;-93
2023/06/20 01:18:26;;;;;;;7.38;5.40;;;24.10;72.90;;;;;;5016966;28;20022;-93
2023/06/20 01:20:58;;;;;;;8.60;4.97;;;24.10;73.00;;;;;;5020930;28;20025;-92
2023/06/20 01:23:40;;;;;;;6.95;5.13;;;24.00;73.00;;;;;;5021202;28;20036;-93
2023/06/20 01:26:12;;;;;;;7.38;4.90;;;24.00;73.20;;;;;;5021028;28;20468;-93
2023/06/20 01:28:59;;;;;;;7.55;5.78;;;24.00;73.30;;;;;;5002260;28;20468;-93
2023/06/20 01:31:37;;;;;;;7.95;5.10;;;24.00;73.20;;;;;;5017384;28;20034;-93
2023/06/20 01:34:08;;;;;;;7.80;5.60;;;24.00;73.80;;;;;;5000598;28;20030;-93
2023/06/20 01:36:38;;;;;;;10.35;6.13;;;24.00;73.70;;;;;;5016840;28;20477;-93
2023/06/20 01:39:15;;;;;;;8.77;5.40;;;23.90;73.60;;;;;;5018155;28;20058;-93
2023/06/20 01:41:44;;;;;;;7.82;5.65;;;23.90;73.50;;;;;;5019448;28;20275;-92
2023/06/20 01:44:13;;;;;;;10.05;5.97;;;23.90;73.70;;;;;;5019878;28;20026;-93
2023/06/20 01:46:39;;;;;;;8.93;5.60;;;23.90;73.80;;;;;;5017107;28;20029;-93
2023/06/20 01:49:07;;;;;;;9.40;5.85;;;23.90;74.00;;;;;;5018330;28;20038;-93
2023/06/20 01:51:33;;;;;;;9.98;5.82;;;23.90;74.10;;;;;;5016277;28;20060;-92
2023/06/20 01:54:02;;;;;;;7.35;5.53;;;23.90;74.30;;;;;;5005922;28;20034;-92
2023/06/20 01:56:30;;;;;;;7.38;5.70;;;23.90;74.20;;;;;;5029225;28;20030;-93
2023/06/20 01:58:59;;;;;;;8.77;5.78;;;23.80;73.90;;;;;;5003355;28;20026;-94
2023/06/20 02:01:26;;;;;;;9.68;6.38;;;23.80;74.00;;;;;;5016141;28;20025;-93
2023/06/20 02:03:54;;;;;;;7.88;5.60;;;23.80;74.10;;;;;;5016191;28;20034;-93
2023/06/20 02:06:22;;;;;;;9.27;5.72;;;23.80;74.50;;;;;;5016216;28;20025;-92
2023/06/20 02:08:48;;;;;;;8.48;6.32;;;23.80;74.60;;;;;;5033532;28;20111;-93
2023/06/20 02:11:18;;;;;;;12.25;6.10;;;23.80;74.70;;;;;;5019349;28;20040;-92
2023/06/20 02:13:45;;;;;;;9.00;6.57;;;23.80;74.70;;;;;;5018663;28;20028;-93
2023/06/20 02:16:12;;;;;;;7.68;5.95;;;23.80;74.70;;;;;;5018846;28;20314;-93
2023/06/20 02:18:38;;;;;;;9.70;6.07;;;23.80;74.80;;;;;;5036165;28;20104;-93
2023/06/20 02:21:13;;;;;;;10.57;6.32;;;23.80;74.90;;;;;;5002465;28;20030;-93
2023/06/20 02:23:40;;;;;;;9.57;6.32;;;23.80;74.90;;;;;;5036241;28;20026;-94
2023/06/20 02:26:10;;;;;;;11.95;6.43;;;23.70;74.90;;;;;;5002675;28;20084;-94
2023/06/20 02:28:40;;;;;;;11.85;6.53;;;23.70;74.90;;;;;;5018533;28;20030;-92
2023/06/20 02:31:09;;;;;;;8.70;6.23;;;23.70;75.00;;;;;;5035273;28;20033;-93
2023/06/20 02:33:38;;;;;;;8.27;6.20;;;23.70;75.10;;;;;;5018445;28;20029;-93
2023/06/20 02:36:04;;;;;;;10.35;6.60;;;23.70;75.10;;;;;;5019254;28;20549;-93
2023/06/20 02:38:31;;;;;;;9.52;5.85;;;23.70;75.10;;;;;;5018938;28;20048;-92
2023/06/20 02:40:57;;;;;;;8.63;6.00;;;23.70;75.40;;;;;;5002796;28;20037;-93
2023/06/20 02:43:23;;;;;;;7.78;6.43;;;23.70;75.40;;;;;;5018970;28;20028;-93
2023/06/20 02:45:57;;;;;;;10.90;6.95;;;23.70;75.40;;;;;;5019666;28;20026;-93
2023/06/20 02:48:54;;;;;;;13.60;7.07;;;23.60;75.40;;;;;;5019854;28;20021;-92
2023/06/20 02:51:25;;;;;;;10.63;6.93;;;23.70;75.50;;;;;;5034091;28;20045;-92
2023/06/20 02:54:07;;;;;;;9.88;6.95;;;23.60;75.60;;;;;;5048155;28;20017;-91
2023/06/20 02:56:36;;;;;;;13.25;6.70;;;23.60;75.50;;;;;;5027482;28;20116;-92
2023/06/20 02:59:06;;;;;;;11.83;7.10;;;23.60;75.70;;;;;;5019338;28;20032;-91
2023/06/20 03:01:33;;;;;;;10.20;7.07;;;23.60;75.90;;;;;;5018210;28;20018;-90
2023/06/20 03:04:03;;;;;;;9.18;6.72;;;23.60;75.90;;;;;;5001929;28;20030;-92
2023/06/20 03:06:28;;;;;;;9.30;6.80;;;23.60;76.00;;;;;;5035642;28;20025;-92
2023/06/20 03:08:57;;;;;;;9.60;6.65;;;23.60;76.20;;;;;;5015050;28;20412;-92
2023/06/20 03:11:23;;;;;;;11.00;6.78;;;23.60;76.20;;;;;;5036855;28;20029;-92
2023/06/20 03:13:50;;;;;;;10.07;7.63;;;23.60;76.30;;;;;;5036791;28;20022;-92
2023/06/20 03:16:15;;;;;;;9.30;6.93;;;23.60;76.40;;;;;;5037767;28;20045;-92
2023/06/20 03:18:41;;;;;;;10.80;6.88;;;23.50;76.40;;;;;;5024763;28;20026;-92
2023/06/20 03:21:07;;;;;;;10.10;7.28;;;23.50;76.30;;;;;;5030505;28;20604;-92
2023/06/20 03:23:33;;;;;;;8.95;6.65;;;23.50;76.00;;;;;;5052117;28;20030;-92
2023/06/20 03:25:59;;;;;;;10.25;7.43;;;23.50;76.20;;;;;;5019278;28;20018;-92
2023/06/20 03:28:25;;;;;;;13.05;7.38;;;23.50;76.50;;;;;;5021260;28;20116;-91
2023/06/20 03:30:52;;;;;;;11.88;7.97;;;23.50;76.70;;;;;;5036516;28;20036;-92
2023/06/20 03:33:17;;;;;;;9.75;6.80;;;23.50;76.80;;;;;;5035363;28;20025;-91
2023/06/20 03:35:43;;;;;;;9.18;6.85;;;23.50;77.00;;;;;;5036369;28;20028;-91
2023/06/20 03:38:09;;;;;;;10.82;7.68;;;23.50;77.20;;;;;;5038686;28;20048;-91
2023/06/20 03:40:35;;;;;;;9.15;6.97;;;23.50;77.20;;;;;;5040109;28;20033;-91
2023/06/20 03:43:00;;;;;;;9.90;7.38;;;23.40;77.30;;;;;;5021606;28;20107;-92
2023/06/20 03:45:26;;;;;;;10.55;7.25;;;23.40;77.30;;;;;;5019225;28;20025;-92
2023/06/20 03:47:52;;;;;;;9.23;7.07;;;23.40;77.40;;;;;;5020183;28;20060;-91
2023/06/20 03:50:18;;;;;;;9.63;7.68;;;23.40;77.50;;;;;;5020089;28;20033;-91
2023/06/20 03:52:43;;;;;;;9.52;6.88;;;23.40;77.60;;;;;;5036335;28;20467;-91
2023/06/20 03:55:09;;;;;;;9.90;7.90;;;23.40;77.70;;;;;;5018268;28;20100;-93
2023/06/20 03:57:35;;;;;;;11.25;7.20;;;23.40;77.90;;;;;;5019917;28;20025;-94
2023/06/20 04:00:09;;;;;;;12.18;7.32;;;23.40;77.80;;;;;;5035865;28;20026;-93
2023/06/20 04:02:35;;;;;;;9.43;7.35;;;23.40;77.90;;;;;;5021107;28;20085;-91
2023/06/20 04:05:00;;;;;;;10.07;7.55;;;23.30;78.00;;;;;;5021117;28;20103;-92
2023/06/20 04:07:26;;;;;;;9.57;7.43;;;23.30;78.00;;;;;;5036034;28;20046;-91
2023/06/20 04:09:52;;;;;;;9.85;7.40;;;23.30;78.00;;;;;;4999531;28;20551;-91
2023/06/20 04:12:17;;;;;;;12.38;7.65;;;23.30;77.90;;;;;;5021970;28;20033;-92
2023/06/20 04:14:43;;;;;;;10.73;7.38;;;23.30;77.90;;;;;;5022447;28;20054;-91
2023/06/20 04:17:09;;;;;;;9.88;7.72;;;23.30;78.00;;;;;;5022498;28;20034;-92
2023/06/20 04:19:36;;;;;;;9.45;7.30;;;23.30;77.90;;;;;;5033637;28;20121;-91
2023/06/20 04:22:01;;;;;;;9.52;7.45;;;23.30;78.00;;;;;;5009521;28;20034;-92
2023/06/20 04:24:27;;;;;;;9.73;7.60;;;23.30;78.10;;;;;;5010956;28;20033;-92
2023/06/20 04:26:54;;;;;;;13.93;8.32;;;23.30;78.10;;;;;;5038075;28;20387;-92
2023/06/20 04:29:20;;;;;;;10.88;8.35;;;23.20;77.80;;;;;;5035061;28;20029;-91
2023/06/20 04:31:47;;;;;;;13.32;7.57;;;23.20;77.90;;;;;;4985275;28;20034;-92
2023/06/20 04:34:13;;;;;;;10.38;7.85;;;23.20;78.10;;;;;;5017844;28;20040;-92
2023/06/20 04:36:41;;;;;;;10.70;7.65;;;23.20;78.30;;;;;;5014886;28;20034;-92
2023/06/20 04:39:07;;;;;;;11.88;8.15;;;23.20;78.30;;;;;;5014025;28;20033;-90
2023/06/20 04:41:33;;;;;;;12.45;7.95;;;23.20;78.40;;;;;;4981182;28;20030;-92
2023/06/20 04:44:00;;;;;;;9.57;7.72;;;23.20;78.60;;;;;;5016510;28;20022;-92
2023/06/20 04:46:26;;;;;;;11.07;8.20;;;23.10;78.50;;;;;;5034517;28;20527;-92
2023/06/20 04:48:52;;;;;;;10.27;7.60;;;23.10;78.70;;;;;;5029268;28;20034;-93
2023/06/20 04:51:18;;;;;;;11.20;8.23;;;23.10;78.90;;;;;;5034012;28;20055;-92
2023/06/20 04:53:43;;;;;;;14.70;8.55;;;23.10;78.90;;;;;;5033360;28;20036;-89
2023/06/20 04:56:09;;;;;;;9.40;8.18;;;23.10;79.10;;;;;;5036409;28;20040;-90
2023/06/20 04:58:35;;;;;;;10.95;7.70;;;23.10;79.40;;;;;;5037357;28;20368;-92
2023/06/20 05:01:01;;;;;;;11.05;8.15;;;23.10;79.60;;;;;;5037238;28;20455;-92
2023/06/20 05:03:27;;;;;;;10.70;8.02;;;23.10;79.70;;;;;;5021643;28;20029;-93
2023/06/20 05:05:52;;;;;;;12.95;9.13;;;23.10;79.80;;;;;;5038049;28;20021;-94
2023/06/20 05:08:18;;;;;;;9.77;7.93;;;23.10;79.90;;;;;;5038224;28;20045;-93
2023/06/20 05:10:44;;;;;;;12.77;8.98;;;23.10;80.00;;;;;;5021846;28;20098;-93
2023/06/20 05:13:10;;;;;;;10.48;8.55;;;23.10;79.70;;;;;;5038132;28;20029;-93
2023/06/20 05:15:36;;;;;;;10.68;8.65;;;23.00;79.90;;;;;;5025635;28;20040;-95
2023/06/20 05:18:02;;;;;;;12.32;9.23;;;23.10;79.80;;;;;;5032817;28;20382;-91
2023/06/20 05:20:27;;;;;;;13.48;9.45;;;23.00;80.00;;;;;;5034807;28;20064;-92
2023/06/20 05:22:53;;;;;;;11.38;8.43;;;23.10;80.30;;;;;;5062831;28;20017;-91
2023/06/20 05:25:19;;;;;;;14.90;8.98;;;23.00;80.30;;;;;;5063172;28;20033;-93
2023/06/20 05:27:46;;;;;;;11.45;9.05;;;23.00;80.50;;;;;;5080586;28;20025;-93
2023/06/20 05:30:11;;;;;;;13.18;9.38;;;23.00;80.60;;;;;;5046775;28;20043;-92
2023/06/20 05:32:37;;;;;;;12.35;9.25;;;23.00;80.70;;;;;;5063531;28;20093;-93
2023/06/20 05:35:05;;;;;;;12.48;8.95;;;23.00;81.00;;;;;;5063322;28;20021;-92
2023/06/20 05:37:31;;;;;;;10.35;9.25;;;23.00;81.00;;;;;;5080466;28;20033;-93
2023/06/20 05:39:57;;;;;;;13.15;9.48;;;23.00;80.90;;;;;;5063223;28;20030;-92
2023/06/20 05:42:23;;;;;;;11.57;9.50;;;23.00;81.00;;;;;;5046807;28;20044;-93
2023/06/20 05:44:48;;;;;;;12.70;9.75;;;23.00;81.10;;;;;;5059386;28;20013;-93
2023/06/20 05:47:17;;;;;;;14.63;9.70;;;23.00;81.10;;;;;;5044097;28;20082;-94
2023/06/20 05:49:47;;;;;;;14.05;10.00;;;23.00;81.20;;;;;;5007887;28;20487;-93
2023/06/20 05:52:14;;;;;;;11.38;9.52;;;23.00;81.20;;;;;;5038709;28;20032;-93
2023/06/20 05:54:41;;;;;;;13.02;9.35;;;23.00;81.40;;;;;;5039537;28;20029;-94
2023/06/20 05:57:08;;;;;;;13.35;10.60;;;23.00;81.30;;;;;;5039834;28;20021;-92
2023/06/20 05:59:33;;;;;;;12.10;10.43;;;23.00;81.40;;;;;;5023140;28;20036;-93
2023/06/20 06:01:59;;;;;;;14.32;9.75;;;23.00;81.60;;;;;;5025122;28;20036;-92
2023/06/20 06:04:28;;;;;;;12.02;9.95;;;23.00;81.80;;;;;;5046713;28;20037;-92
2023/06/20 06:06:54;;;;;;;12.00;9.50;;;23.10;82.10;;;;;;5061219;28;20017;-92
2023/06/20 06:09:22;;;;;;;13.90;9.85;;;23.10;82.00;;;;;;5033349;28;20136;-93
2023/06/20 06:11:47;;;;;;;12.07;10.20;;;23.10;82.00;;;;;;5006576;28;20089;-93
2023/06/20 06:14:13;;;;;;;13.18;10.10;;;23.10;82.10;;;;;;5006575;28;20032;-94
2023/06/20 06:16:39;;;;;;;13.60;10.45;;;23.10;82.00;;;;;;5022375;28;20037;-93
2023/06/20 06:19:04;;;;;;;13.77;10.70;;;23.10;81.80;;;;;;5005843;28;20032;-93
2023/06/20 06:21:30;;;;;;;12.20;10.82;;;23.10;82.00;;;;;;5038648;28;20029;-92
2023/06/20 06:23:56;;;;;;;15.30;11.13;;;23.10;81.90;;;;;;5005787;28;20112;-92
2023/06/20 06:26:22;;;;;;;12.05;9.98;;;23.20;82.00;;;;;;5038466;28;20052;-92
2023/06/20 06:28:47;;;;;;;11.95;9.98;;;23.20;82.10;;;;;;5056374;28;20029;-93
2023/06/20 06:31:24;;;;;;;13.65;10.82;;;23.20;82.30;;;;;;5055348;28;20490;-93
2023/06/20 06:33:50;;;;;;;13.38;10.50;;;23.20;82.30;;;;;;5039011;28;20021;-93
2023/06/20 06:36:16;;;;;;;20.13;11.45;;;23.20;82.20;;;;;;5038388;28;20025;-95
2023/06/20 06:38:48;;;;;;;12.50;11.10;;;23.20;82.00;;;;;;5006282;28;20036;-93
2023/06/20 06:41:18;;;;;;;14.45;11.05;;;23.30;82.20;;;;;;5041172;28;20036;-94
2023/06/20 06:43:45;;;;;;;12.35;10.88;;;23.30;82.20;;;;;;5025994;28;20021;-92
2023/06/20 06:46:10;;;;;;;15.95;12.23;;;23.30;82.30;;;;;;5058402;28;20013;-92
2023/06/20 06:48:36;;;;;;;13.57;11.45;;;23.30;82.40;;;;;;5057759;28;20029;-92
2023/06/20 06:51:03;;;;;;;12.05;10.68;;;23.30;83.00;;;;;;5070678;28;20039;-93
2023/06/20 06:53:29;;;;;;;14.05;10.45;;;23.40;82.40;;;;;;5023034;28;20029;-92
2023/06/20 06:55:55;;;;;;;13.07;11.50;;;23.40;82.50;;;;;;5022191;28;20383;-95
2023/06/20 06:58:20;;;;;;;13.18;10.38;;;23.40;82.90;;;;;;5038106;28;20032;-92
2023/06/20 07:00:46;;;;;;;13.45;10.82;;;23.40;83.10;;;;;;5005258;28;20148;-85
2023/06/20 07:03:12;;;;;;;12.73;10.38;;;23.40;83.20;;;;;;5036196;28;20036;-85
2023/06/20 07:05:38;;;;;;;15.85;11.88;;;23.50;83.60;;;;;;5036451;28;20063;-84
2023/06/20 07:08:04;;;;;;;19.33;11.23;;;23.60;83.90;;;;;;5002819;28;20495;-85
2023/06/20 07:10:30;;;;;;;14.73;10.40;;;23.60;83.90;;;;;;5019374;28;20040;-83
2023/06/20 07:12:56;;;;;;;12.10;10.73;;;23.60;84.00;;;;;;5053602;28;20029;-83
2023/06/20 07:15:21;;;;;;;15.35;11.60;;;23.70;84.20;;;;;;5035688;28;20502;-84
2023/06/20 07:17:47;;;;;;;13.25;11.45;;;23.70;84.60;;;;;;5019096;28;20063;-83
2023/06/20 07:20:13;;;;;;;11.30;10.10;;;23.70;84.60;;;;;;5035512;28;20090;-83
2023/06/20 07:22:39;;;;;;;17.00;12.80;;;23.80;84.50;;;;;;5019677;28;20426;-83
2023/06/20 07:25:07;;;;;;;13.48;10.95;;;23.80;84.50;;;;;;5035809;28;20021;-85
2023/06/20 07:27:36;;;;;;;19.05;11.43;;;23.80;84.50;;;;;;5054947;28;20017;-92
2023/06/20 07:30:02;;;;;;;13.90;10.88;;;23.80;84.40;;;;;;5004487;28;20033;-91
2023/06/20 07:32:28;;;;;;;13.93;12.52;;;23.80;84.50;;;;;;5020613;28;20033;-92
2023/06/20 07:34:54;;;;;;;11.85;10.65;;;23.90;84.50;;;;;;5020675;28;20028;-91
2023/06/20 07:37:20;;;;;;;13.00;11.55;;;23.90;84.40;;;;;;5020516;28;20055;-91
2023/06/20 07:39:48;;;;;;;14.45;12.95;;;23.90;84.40;;;;;;5020484;28;20082;-91
2023/06/20 07:42:14;;;;;;;14.35;11.57;;;23.90;84.10;;;;;;5020488;28;20021;-91
2023/06/20 07:44:40;;;;;;;14.98;11.70;;;24.00;84.10;;;;;;5036563;28;20112;-90
2023/06/20 07:47:09;;;;;;;15.43;11.80;;;24.00;84.30;;;;;;5003710;28;20037;-91
2023/06/20 07:49:35;;;;;;;13.93;11.05;;;24.10;84.50;;;;;;5037599;28;20486;-90
2023/06/20 07:52:01;;;;;;;15.30;11.93;;;24.10;85.30;;;;;;5020430;28;20025;-91
2023/06/20 07:54:27;;;;;;;17.63;13.15;;;24.10;84.80;;;;;;5020486;28;20029;-91
2023/06/20 07:56:53;;;;;;;13.98;11.93;;;24.10;84.60;;;;;;5003999;28;20029;-91
2023/06/20 07:59:21;;;;;;;15.43;11.15;;;24.20;84.60;;;;;;5036286;28;20091;-90
2023/06/20 08:01:46;;;;;;;13.68;11.35;;;24.20;84.60;;;;;;5020537;28;20021;-91
2023/06/20 08:04:12;;;;;;;10.57;8.57;;;24.30;84.80;;;;;;5036584;28;20087;-91
2023/06/20 08:06:38;;;;;;;13.23;9.40;;;24.30;84.70;;;;;;5020433;28;20037;-91
2023/06/20 08:09:05;;;;;;;10.75;9.35;;;24.30;84.90;;;;;;5034867;28;20132;-91
2023/06/20 08:11:30;;;;;;;12.65;10.48;;;24.40;85.00;;;;;;5024874;28;20064;-90
2023/06/20 08:13:56;;;;;;;9.55;8.25;;;24.40;85.00;;;;;;5058910;28;20029;-90
2023/06/20 08:16:21;;;;;;;10.85;9.00;;;24.40;84.80;;;;;;5020429;28;20030;-91
2023/06/20 08:18:47;;;;;;;11.30;9.45;;;24.50;85.00;;;;;;5020248;28;20090;-90
2023/06/20 08:21:13;;;;;;;11.15;8.68;;;24.50;85.10;;;;;;5036146;28;20041;-88
2023/06/20 08:23:38;;;;;;;11.02;8.82;;;24.60;85.20;;;;;;5020201;28;20017;-91
2023/06/20 08:26:04;;;;;;;9.07;8.00;;;24.60;85.40;;;;;;5003439;28;20025;-90
2023/06/20 08:28:30;;;;;;;9.23;7.28;;;24.70;85.60;;;;;;5020304;28;20029;-91
2023/06/20 08:30:55;;;;;;;9.50;7.68;;;24.70;85.60;;;;;;5036154;28;20474;-90
2023/06/20 08:33:24;;;;;;;8.82;7.53;;;24.80;85.20;;;;;;5019529;28;20029;-91
2023/06/20 08:35:50;;;;;;;7.82;6.53;;;24.80;85.20;;;;;;5036294;28;20059;-91
2023/06/20 08:38:16;;;;;;;9.20;6.32;;;24.80;85.00;;;;;;5004044;28;20077;-91
2023/06/20 08:40:42;;;;;;;7.90;7.07;;;24.90;85.00;;;;;;5019828;28;20393;-91
2023/06/20 08:43:14;;;;;;;9.82;7.63;;;25.00;84.70;;;;;;5019954;28;20101;-90
2023/06/20 08:45:40;;;;;;;10.02;8.13;;;25.00;84.30;;;;;;5037176;28;20111;-91
2023/06/20 08:48:06;;;;;;;9.32;7.10;;;25.00;83.90;;;;;;5037650;28;20425;-91
2023/06/20 08:50:32;;;;;;;8.40;7.18;;;25.10;83.80;;;;;;5050112;28;20029;-89
2023/06/20 08:53:00;;;;;;;9.27;7.18;;;25.10;83.60;;;;;;5052448;28;20455;-91
2023/06/20 08:55:28;;;;;;;11.45;7.13;;;25.20;83.70;;;;;;5038307;28;20017;-91
2023/06/20 08:57:57;;;;;;;7.07;6.38;;;25.20;83.60;;;;;;5040416;28;20027;-91
2023/06/20 09:00:23;;;;;;;8.15;5.82;;;25.30;83.80;;;;;;5040036;28;20029;-91
2023/06/20 09:02:52;;;;;;;7.68;6.53;;;25.30;83.40;;;;;;5057586;28;20021;-92
2023/06/20 09:05:18;;;;;;;8.55;7.15;;;25.40;83.50;;;;;;5040116;28;20471;-91
2023/06/20 09:07:44;;;;;;;7.97;6.97;;;25.50;83.20;;;;;;5057653;28;20052;-91
2023/06/20 09:10:16;;;;;;;9.30;6.60;;;25.50;82.90;;;;;;5007248;28;20036;-91
2023/06/20 09:12:56;;;;;;;9.30;6.90;;;25.60;83.00;;;;;;5057615;28;20036;-91
2023/06/20 09:15:23;;;;;;;;;;;25.70;83.30;;;;;;5040215;28;20486;-92
2023/06/20 09:17:56;;;;;;;9.75;7.38;;;25.70;82.70;;;;;;5057097;28;19905;-91
2023/06/20 09:20:32;;;;;;;10.82;8.50;;;25.70;83.00;;;;;;5039503;28;20017;-91
2023/06/20 09:22:59;;;;;;;11.02;7.25;;;25.80;82.90;;;;;;5057302;28;20113;-91
2023/06/20 09:25:27;;;;;;;9.10;7.20;;;25.90;82.60;;;;;;5022892;28;20507;-91
2023/06/20 09:27:55;;;;;;;9.40;7.47;;;25.90;82.50;;;;;;5057292;28;20021;-91
2023/06/20 09:30:21;;;;;;;9.52;6.97;;;26.00;82.20;;;;;;5039546;28;20031;-91
2023/06/20 09:32:47;;;;;;;7.28;6.43;;;26.00;82.00;;;;;;5023487;28;20059;-91
2023/06/20 09:35:16;;;;;;;11.57;7.53;;;26.10;82.00;;;;;;5058020;28;20099;-92
2023/06/20 09:37:47;;;;;;;9.30;7.10;;;26.10;81.70;;;;;;5039378;28;20033;-90
2023/06/20 09:40:31;;;;;;;12.45;7.68;;;26.20;82.00;;;;;;5023761;28;20032;-91
2023/06/20 09:42:57;;;;;;;10.70;8.15;;;26.30;81.90;;;;;;5024285;28;20029;-91
2023/06/20 09:45:23;;;;;;;8.07;6.53;;;26.30;81.70;;;;;;5030670;28;20029;-90
2023/06/20 09:47:49;;;;;;;7.50;6.22;;;26.30;81.70;;;;;;5047282;28;20054;-91
2023/06/20 09:50:19;;;;;;;7.68;5.90;;;26.30;81.60;;;;;;5031295;28;20047;-91
2023/06/20 09:53:12;;;;;;;7.57;5.82;;;26.40;82.30;;;;;;5045960;28;20052;-91
2023/06/20 09:55:39;;;;;;;8.00;6.22;;;26.40;81.50;;;;;;5042051;28;20032;-92
2023/06/20 09:58:17;;;;;;;6.97;5.43;;;26.50;81.30;;;;;;5008943;28;20036;-91
2023/06/20 10:00:43;;;;;;;6.35;5.43;;;26.50;81.00;;;;;;5042031;28;20031;-91
2023/06/20 10:03:11;;;;;;;6.95;5.68;;;26.50;80.50;;;;;;5025820;28;20033;-91
2023/06/20 10:05:38;;;;;;;8.10;6.80;;;26.60;80.40;;;;;;5057757;28;20075;-91
2023/06/20 10:08:06;;;;;;;8.88;6.80;;;26.60;80.30;;;;;;5009688;28;20140;-90
2023/06/20 10:10:31;;;;;;;6.50;5.80;;;26.70;80.10;;;;;;5044820;28;20031;-91
2023/06/20 10:12:58;;;;;;;7.00;5.03;;;26.70;79.90;;;;;;5014998;28;20486;-92
2023/06/20 10:15:24;;;;;;;7.20;4.90;;;26.70;80.10;;;;;;5015015;28;20028;-91
2023/06/20 10:17:50;;;;;;;8.75;5.65;;;26.80;80.50;;;;;;5029553;28;20049;-91
2023/06/20 10:20:33;;;;;;;6.57;4.88;;;26.90;80.90;;;;;;5030221;28;20044;-91
2023/06/20 10:23:04;;;;;;;6.00;4.30;;;26.90;80.50;;;;;;5047995;28;20085;-90
2023/06/20 10:25:31;;;;;;;5.50;4.45;;;27.00;80.00;;;;;;5043120;28;20107;-91
2023/06/20 10:28:09;;;;;;;6.93;4.38;;;27.10;80.10;;;;;;5025291;28;20528;-92
2023/06/20 10:30:50;;;;;;;5.07;4.07;;;27.20;80.00;;;;;;5043520;28;20089;-92
2023/06/20 10:33:32;;;;;;;5.65;4.28;;;27.30;79.20;;;;;;5049495;28;20029;-91
2023/06/20 10:36:07;;;;;;;5.57;4.15;;;27.30;79.10;;;;;;5047238;28;20025;-92
2023/06/20 10:38:42;;;;;;;6.10;4.40;;;27.30;78.70;;;;;;5037710;28;20116;-92
2023/06/20 10:41:21;;;;;;;4.88;4.00;;;27.40;78.60;;;;;;5054986;28;20063;-92
2023/06/20 10:43:52;;;;;;;4.60;3.90;;;27.40;79.00;;;;;;5038431;28;20354;-92
2023/06/20 10:46:21;;;;;;;7.72;4.43;;;27.50;79.30;;;;;;5034903;28;20034;-92
2023/06/20 10:48:49;;;;;;;6.15;3.90;;;27.60;78.90;;;;;;5037855;28;20475;-92
2023/06/20 10:51:15;;;;;;;5.07;4.03;;;27.60;78.40;;;;;;5005952;28;20561;-92
2023/06/20 10:53:40;;;;;;;5.70;3.90;;;27.70;77.70;;;;;;5037935;28;20068;-92
2023/06/20 10:56:06;;;;;;;7.28;3.60;;;27.70;77.50;;;;;;5039137;28;20088;-92
2023/06/20 10:58:32;;;;;;;4.03;3.40;;;27.80;76.80;;;;;;5021240;28;20030;-94
2023/06/20 11:00:57;;;;;;;5.90;3.60;;;27.80;76.60;;;;;;5038218;28;20048;-93
2023/06/20 11:03:23;;;;;;;5.38;3.50;;;27.90;76.30;;;;;;5037312;28;20100;-93
2023/06/20 11:05:55;;;;;;;3.75;3.03;;;27.90;76.10;;;;;;5021035;28;20025;-89
2023/06/20 11:08:25;;;;;;;5.28;3.50;;;28.00;76.40;;;;;;5057479;28;20045;-92
2023/06/20 11:10:51;;;;;;;5.47;3.17;;;28.10;76.40;;;;;;5037556;28;20493;-93
2023/06/20 11:13:20;;;;;;;5.97;3.30;;;28.10;76.40;;;;;;5037291;28;20020;-91
2023/06/20 11:15:49;;;;;;;3.92;3.30;;;28.20;75.70;;;;;;5037620;28;20116;-90
2023/06/20 11:18:15;;;;;;;5.00;3.25;;;28.20;75.50;;;;;;5036937;28;20029;-91
2023/06/20 11:20:41;;;;;;;5.80;3.17;;;28.20;75.40;;;;;;5054998;28;20029;-89
2023/06/20 11:23:12;;;;;;;7.85;3.25;;;28.20;75.50;;;;;;5035552;28;20112;-88
2023/06/20 11:25:40;;;;;;;8.00;3.40;;;28.20;75.50;;;;;;5054558;28;20100;-91
2023/06/20 11:28:13;;;;;;;4.03;3.28;;;28.20;75.00;;;;;;5021391;28;20490;-91
2023/06/20 11:30:46;;;;;;;5.28;3.03;;;28.30;75.10;;;;;;5037948;28;20079;-91
2023/06/20 11:33:19;;;;;;;8.00;3.00;;;28.30;75.30;;;;;;5023453;28;20021;-91
2023/06/20 11:35:52;;;;;;;7.53;3.20;;;28.40;75.60;;;;;;5052817;28;20036;-91
2023/06/20 11:38:24;;;;;;;4.65;2.97;;;28.40;74.90;;;;;;5069345;28;20078;-92
2023/06/20 11:41:03;;;;;;;5.30;3.10;;;28.50;74.80;;;;;;5033490;28;20517;-92
2023/06/20 11:43:41;;;;;;;5.10;3.35;;;28.50;74.30;;;;;;5033575;28;20026;-91
2023/06/20 11:46:09;;;;;;;6.65;2.90;;;28.60;74.30;;;;;;5054033;28;20033;-94
2023/06/20 11:48:50;;;;;;;3.88;2.90;;;28.70;74.00;;;;;;5032449;28;20033;-94
2023/06/20 11:51:25;;;;;;;3.40;2.80;;;28.70;73.90;;;;;;5053795;28;20021;-95
2023/06/20 11:54:17;;;;;;;7.05;2.80;;;28.80;73.80;;;;;;5054199;28;20028;-94
2023/06/20 11:56:56;;;;;;;4.28;3.25;;;28.80;73.70;;;;;;5030595;28;20447;-94
2023/06/20 11:59:28;;;;;;;4.32;3.10;;;28.90;73.60;;;;;;5001175;28;20040;-94
2023/06/20 12:01:54;;;;;;;4.28;2.80;;;29.00;73.70;;;;;;5033043;28;20112;-95
2023/06/20 12:04:22;;;;;;;5.13;3.00;;;29.00;73.70;;;;;;4997207;28;20092;-94
2023/06/20 12:06:52;;;;;;;3.75;2.88;;;29.10;73.30;;;;;;5025738;28;20033;-89
2023/06/20 12:09:18;;;;;;;3.55;2.90;;;29.20;73.60;;;;;;4999589;28;20064;-84
2023/06/20 12:11:49;;;;;;;5.25;2.90;;;29.20;73.20;;;;;;5011297;28;20044;-90
2023/06/20 12:14:19;;;;;;;8.02;3.00;;;29.30;72.40;;;;;;4997290;28;20034;-94
2023/06/20 12:16:53;;;;;;;6.60;3.00;;;29.30;71.90;;;;;;4993743;28;20026;-95
2023/06/20 12:19:22;;;;;;;8.15;3.10;;;29.40;71.80;;;;;;5003811;28;20116;-93
2023/06/20 12:21:55;;;;;;;5.57;3.00;;;29.40;70.90;;;;;;5038912;28;20025;-94
2023/06/20 12:24:27;;;;;;;4.38;2.60;;;29.50;71.10;;;;;;5018880;28;20024;-94
2023/06/20 12:26:56;;;;;;;4.78;2.60;;;29.60;70.50;;;;;;5016964;28;20029;-94
2023/06/20 12:29:22;;;;;;;4.65;2.92;;;29.60;70.60;;;;;;5017971;28;20022;-94
2023/06/20 12:31:53;;;;;;;3.92;2.50;;;29.70;70.40;;;;;;5019996;28;20472;-93
2023/06/20 12:34:19;;;;;;;7.47;2.95;;;29.70;70.60;;;;;;5021501;28;20503;-92
2023/06/20 12:36:47;;;;;;;4.70;3.05;;;29.80;71.10;;;;;;5020674;28;20033;-94
2023/06/20 12:39:13;;;;;;;4.60;2.80;;;29.80;70.50;;;;;;5021127;28;20049;-94
2023/06/20 12:41:39;;;;;;;3.70;2.58;;;29.90;70.20;;;;;;5001366;28;20472;-94
2023/06/20 12:44:08;;;;;;;4.55;2.50;;;29.90;69.90;;;;;;5020840;28;20028;-94
2023/06/20 12:46:34;;;;;;;3.60;2.70;;;30.00;70.00;;;;;;5021302;28;20021;-94